sensor_id;sensor_type;location;lat;lon;timestamp;temperature;humidity
52867;DHT22;38739;53.324;6.862;2023-04-15T00:02:18;6.60;99.90
52867;DHT22;38739;53.324;6.862;2023-04-15T00:04:45;6.50;99.90
52867;DHT22;38739;53.324;6.862;2023-04-15T00:07:11;6.50;99.90
52867;DHT22;38739;53.324;6.862;2023-04-15T00:09:36;6.50;99.90
52867;DHT22;38739;53.324;6.862;2023-04-15T00:12:02;6.40;99.90
52867;DHT22;38739;53.324;6.862;2023-04-15T00:14:28;6.40;99.90
52867;DHT22;38739;53.324;6.862;2023-04-15T00:16:55;6.40;99.90
52867;DHT22;38739;53.324;6.862;2023-04-15T00:19:22;6.30;99.90
52867;DHT22;38739;53.324;6.862;2023-04-15T00:21:48;6.30;99.90
52867;DHT22;38739;53.324;6.862;2023-04-15T00:24:14;6.30;99.90
52867;DHT22;38739;53.324;6.862;2023-04-15T00:26:40;6.30;99.90
52867;DHT22;38739;53.324;6.862;2023-04-15T00:29:06;6.20;99.90
52867;DHT22;38739;53.324;6.862;2023-04-15T00:31:31;6.20;99.90
52867;DHT22;38739;53.324;6.862;2023-04-15T00:33:57;6.20;99.90
52867;DHT22;38739;53.324;6.862;2023-04-15T00:36:24;6.20;99.90
52867;DHT22;38739;53.324;6.862;2023-04-15T00:38:50;6.10;99.90
52867;DHT22;38739;53.324;6.862;2023-04-15T00:41:17;6.10;99.90
52867;DHT22;38739;53.324;6.862;2023-04-15T00:43:43;6.10;99.90
52867;DHT22;38739;53.324;6.862;2023-04-15T00:46:12;6.10;99.90
52867;DHT22;38739;53.324;6.862;2023-04-15T00:48:39;6.00;99.90
52867;DHT22;38739;53.324;6.862;2023-04-15T00:51:05;6.00;99.90
52867;DHT22;38739;53.324;6.862;2023-04-15T00:53:32;5.90;99.90
52867;DHT22;38739;53.324;6.862;2023-04-15T00:55:57;5.90;99.90
52867;DHT22;38739;53.324;6.862;2023-04-15T00:58:23;5.90;99.90
52867;DHT22;38739;53.324;6.862;2023-04-15T01:00:50;5.80;99.90
52867;DHT22;38739;53.324;6.862;2023-04-15T01:03:19;5.80;99.90
52867;DHT22;38739;53.324;6.862;2023-04-15T01:05:45;5.80;99.90
52867;DHT22;38739;53.324;6.862;2023-04-15T01:08:11;5.70;99.90
52867;DHT22;38739;53.324;6.862;2023-04-15T01:10:37;5.70;99.90
52867;DHT22;38739;53.324;6.862;2023-04-15T01:13:04;5.60;99.90
52867;DHT22;38739;53.324;6.862;2023-04-15T01:15:30;5.60;99.90
52867;DHT22;38739;53.324;6.862;2023-04-15T01:17:57;5.60;99.90
52867;DHT22;38739;53.324;6.862;2023-04-15T01:20:23;5.60;99.90
52867;DHT22;38739;53.324;6.862;2023-04-15T01:22:49;5.50;99.90
52867;DHT22;38739;53.324;6.862;2023-04-15T01:25:24;5.50;99.90
52867;DHT22;38739;53.324;6.862;2023-04-15T01:27:51;5.50;99.90
52867;DHT22;38739;53.324;6.862;2023-04-15T01:30:17;5.40;99.90
52867;DHT22;38739;53.324;6.862;2023-04-15T01:32:43;5.40;99.90
52867;DHT22;38739;53.324;6.862;2023-04-15T01:35:08;5.40;99.90
52867;DHT22;38739;53.324;6.862;2023-04-15T01:37:35;5.40;99.90
52867;DHT22;38739;53.324;6.862;2023-04-15T01:40:02;5.40;99.90
52867;DHT22;38739;53.324;6.862;2023-04-15T01:42:27;5.40;99.90
52867;DHT22;38739;53.324;6.862;2023-04-15T01:44:53;5.40;99.90
52867;DHT22;38739;53.324;6.862;2023-04-15T01:47:19;5.40;99.90
52867;DHT22;38739;53.324;6.862;2023-04-15T01:49:45;5.40;99.90
52867;DHT22;38739;53.324;6.862;2023-04-15T01:52:11;5.40;99.90
52867;DHT22;38739;53.324;6.862;2023-04-15T01:54:36;5.30;99.90
52867;DHT22;38739;53.324;6.862;2023-04-15T01:57:02;5.30;99.90
52867;DHT22;38739;53.324;6.862;2023-04-15T01:59:29;5.30;99.90
52867;DHT22;38739;53.324;6.862;2023-04-15T02:01:55;5.20;99.90
52867;DHT22;38739;53.324;6.862;2023-04-15T02:04:21;5.20;99.90
52867;DHT22;38739;53.324;6.862;2023-04-15T02:06:48;5.20;99.90
52867;DHT22;38739;53.324;6.862;2023-04-15T02:09:13;5.10;99.90
52867;DHT22;38739;53.324;6.862;2023-04-15T02:11:39;5.10;99.90
52867;DHT22;38739;53.324;6.862;2023-04-15T02:14:05;5.10;99.90
52867;DHT22;38739;53.324;6.862;2023-04-15T02:16:31;5.00;99.90
52867;DHT22;38739;53.324;6.862;2023-04-15T02:18:59;5.00;99.90
52867;DHT22;38739;53.324;6.862;2023-04-15T02:21:25;5.00;99.90
52867;DHT22;38739;53.324;6.862;2023-04-15T02:23:51;4.90;99.90
52867;DHT22;38739;53.324;6.862;2023-04-15T02:26:19;4.90;99.90
52867;DHT22;38739;53.324;6.862;2023-04-15T02:28:46;4.80;99.90
52867;DHT22;38739;53.324;6.862;2023-04-15T02:31:12;4.80;99.90
52867;DHT22;38739;53.324;6.862;2023-04-15T02:33:37;4.70;99.90
52867;DHT22;38739;53.324;6.862;2023-04-15T02:36:03;4.60;99.90
52867;DHT22;38739;53.324;6.862;2023-04-15T02:38:29;4.60;99.90
52867;DHT22;38739;53.324;6.862;2023-04-15T02:40:56;4.60;99.90
52867;DHT22;38739;53.324;6.862;2023-04-15T02:43:22;4.50;99.90
52867;DHT22;38739;53.324;6.862;2023-04-15T02:45:48;4.50;99.90
52867;DHT22;38739;53.324;6.862;2023-04-15T02:48:14;4.40;99.90
52867;DHT22;38739;53.324;6.862;2023-04-15T02:50:42;4.40;99.90
52867;DHT22;38739;53.324;6.862;2023-04-15T02:53:08;4.40;99.90
52867;DHT22;38739;53.324;6.862;2023-04-15T02:55:33;4.30;99.90
52867;DHT22;38739;53.324;6.862;2023-04-15T02:57:59;4.30;99.90
52867;DHT22;38739;53.324;6.862;2023-04-15T03:00:26;4.30;99.90
52867;DHT22;38739;53.324;6.862;2023-04-15T03:02:57;4.30;99.90
52867;DHT22;38739;53.324;6.862;2023-04-15T03:05:23;4.20;99.90
52867;DHT22;38739;53.324;6.862;2023-04-15T03:07:50;4.20;99.90
52867;DHT22;38739;53.324;6.862;2023-04-15T03:10:16;4.20;99.90
52867;DHT22;38739;53.324;6.862;2023-04-15T03:12:42;4.20;99.90
52867;DHT22;38739;53.324;6.862;2023-04-15T03:15:08;4.10;99.90
52867;DHT22;38739;53.324;6.862;2023-04-15T03:17:34;4.10;99.90
52867;DHT22;38739;53.324;6.862;2023-04-15T03:20:04;4.10;99.90
52867;DHT22;38739;53.324;6.862;2023-04-15T03:22:33;4.10;99.90
52867;DHT22;38739;53.324;6.862;2023-04-15T03:24:59;4.10;99.90
52867;DHT22;38739;53.324;6.862;2023-04-15T03:27:25;4.10;99.90
52867;DHT22;38739;53.324;6.862;2023-04-15T03:29:50;4.00;99.90
52867;DHT22;38739;53.324;6.862;2023-04-15T03:32:17;4.00;99.90
52867;DHT22;38739;53.324;6.862;2023-04-15T03:34:43;4.00;99.90
52867;DHT22;38739;53.324;6.862;2023-04-15T03:37:08;4.00;99.90
52867;DHT22;38739;53.324;6.862;2023-04-15T03:39:34;4.00;99.90
52867;DHT22;38739;53.324;6.862;2023-04-15T03:42:00;4.00;99.90
52867;DHT22;38739;53.324;6.862;2023-04-15T03:44:26;3.90;99.90
52867;DHT22;38739;53.324;6.862;2023-04-15T03:46:53;3.90;99.90
52867;DHT22;38739;53.324;6.862;2023-04-15T03:49:19;3.90;99.90
52867;DHT22;38739;53.324;6.862;2023-04-15T03:51:45;3.90;99.90
52867;DHT22;38739;53.324;6.862;2023-04-15T03:54:11;3.90;99.90
52867;DHT22;38739;53.324;6.862;2023-04-15T03:56:39;3.90;99.90
52867;DHT22;38739;53.324;6.862;2023-04-15T03:59:05;3.90;99.90
52867;DHT22;38739;53.324;6.862;2023-04-15T04:01:31;3.90;99.90
52867;DHT22;38739;53.324;6.862;2023-04-15T04:03:56;3.90;99.90
52867;DHT22;38739;53.324;6.862;2023-04-15T04:06:22;3.90;99.90
52867;DHT22;38739;53.324;6.862;2023-04-15T04:08:48;3.80;99.90
52867;DHT22;38739;53.324;6.862;2023-04-15T04:11:14;3.80;99.90
52867;DHT22;38739;53.324;6.862;2023-04-15T04:13:39;3.80;99.90
52867;DHT22;38739;53.324;6.862;2023-04-15T04:16:05;3.80;99.90
52867;DHT22;38739;53.324;6.862;2023-04-15T04:18:32;3.80;99.90
52867;DHT22;38739;53.324;6.862;2023-04-15T04:20:57;3.70;99.90
52867;DHT22;38739;53.324;6.862;2023-04-15T04:23:24;3.70;99.90
52867;DHT22;38739;53.324;6.862;2023-04-15T04:25:49;3.70;99.90
52867;DHT22;38739;53.324;6.862;2023-04-15T04:28:15;3.70;99.90
52867;DHT22;38739;53.324;6.862;2023-04-15T04:30:42;3.70;99.90
52867;DHT22;38739;53.324;6.862;2023-04-15T04:33:08;3.70;99.90
52867;DHT22;38739;53.324;6.862;2023-04-15T04:35:34;3.70;99.90
52867;DHT22;38739;53.324;6.862;2023-04-15T04:38:02;3.70;99.90
52867;DHT22;38739;53.324;6.862;2023-04-15T04:40:28;3.70;99.90
52867;DHT22;38739;53.324;6.862;2023-04-15T04:42:54;3.70;99.90
52867;DHT22;38739;53.324;6.862;2023-04-15T04:45:20;3.70;99.90
52867;DHT22;38739;53.324;6.862;2023-04-15T04:47:45;3.80;99.90
52867;DHT22;38739;53.324;6.862;2023-04-15T04:50:12;3.80;99.90
52867;DHT22;38739;53.324;6.862;2023-04-15T04:52:38;3.90;99.90
52867;DHT22;38739;53.324;6.862;2023-04-15T04:55:04;3.80;99.90
52867;DHT22;38739;53.324;6.862;2023-04-15T04:57:30;3.80;99.90
52867;DHT22;38739;53.324;6.862;2023-04-15T04:59:56;3.90;99.90
52867;DHT22;38739;53.324;6.862;2023-04-15T05:02:22;3.80;99.90
52867;DHT22;38739;53.324;6.862;2023-04-15T05:04:48;3.90;99.90
52867;DHT22;38739;53.324;6.862;2023-04-15T05:07:14;3.80;99.90
52867;DHT22;38739;53.324;6.862;2023-04-15T05:09:40;3.80;99.90
52867;DHT22;38739;53.324;6.862;2023-04-15T05:12:06;3.80;99.90
52867;DHT22;38739;53.324;6.862;2023-04-15T05:14:33;3.90;99.90
52867;DHT22;38739;53.324;6.862;2023-04-15T05:16:59;3.90;99.90
52867;DHT22;38739;53.324;6.862;2023-04-15T05:19:25;4.00;99.90
52867;DHT22;38739;53.324;6.862;2023-04-15T05:21:50;4.00;99.90
52867;DHT22;38739;53.324;6.862;2023-04-15T05:24:16;4.10;99.90
52867;DHT22;38739;53.324;6.862;2023-04-15T05:26:42;4.30;99.90
52867;DHT22;38739;53.324;6.862;2023-04-15T05:29:08;4.50;99.90
52867;DHT22;38739;53.324;6.862;2023-04-15T05:31:34;4.70;99.90
52867;DHT22;38739;53.324;6.862;2023-04-15T05:34:00;5.00;99.90
52867;DHT22;38739;53.324;6.862;2023-04-15T05:36:26;5.20;99.90
52867;DHT22;38739;53.324;6.862;2023-04-15T05:38:52;5.40;99.90
52867;DHT22;38739;53.324;6.862;2023-04-15T05:41:18;5.60;99.90
52867;DHT22;38739;53.324;6.862;2023-04-15T05:43:43;5.70;99.90
52867;DHT22;38739;53.324;6.862;2023-04-15T05:46:09;5.90;99.90
52867;DHT22;38739;53.324;6.862;2023-04-15T05:48:35;6.00;99.90
52867;DHT22;38739;53.324;6.862;2023-04-15T05:51:01;6.10;99.90
52867;DHT22;38739;53.324;6.862;2023-04-15T05:53:26;6.30;99.90
52867;DHT22;38739;53.324;6.862;2023-04-15T05:55:52;6.40;99.90
52867;DHT22;38739;53.324;6.862;2023-04-15T05:58:17;6.50;99.90
52867;DHT22;38739;53.324;6.862;2023-04-15T06:00:43;6.60;99.90
52867;DHT22;38739;53.324;6.862;2023-04-15T06:03:10;6.80;99.90
52867;DHT22;38739;53.324;6.862;2023-04-15T06:05:36;6.90;99.90
52867;DHT22;38739;53.324;6.862;2023-04-15T06:08:02;7.00;99.90
52867;DHT22;38739;53.324;6.862;2023-04-15T06:10:27;7.10;99.90
52867;DHT22;38739;53.324;6.862;2023-04-15T06:12:53;7.20;99.90
52867;DHT22;38739;53.324;6.862;2023-04-15T06:15:19;7.20;99.90
52867;DHT22;38739;53.324;6.862;2023-04-15T06:17:45;7.40;99.90
52867;DHT22;38739;53.324;6.862;2023-04-15T06:20:11;7.40;99.90
52867;DHT22;38739;53.324;6.862;2023-04-15T06:22:37;7.40;99.90
52867;DHT22;38739;53.324;6.862;2023-04-15T06:25:06;7.40;99.90
52867;DHT22;38739;53.324;6.862;2023-04-15T06:27:35;7.50;99.90
52867;DHT22;38739;53.324;6.862;2023-04-15T06:30:01;7.50;99.90
52867;DHT22;38739;53.324;6.862;2023-04-15T06:32:26;7.50;99.90
52867;DHT22;38739;53.324;6.862;2023-04-15T06:34:52;7.60;99.90
52867;DHT22;38739;53.324;6.862;2023-04-15T06:37:18;7.70;99.90
52867;DHT22;38739;53.324;6.862;2023-04-15T06:39:43;7.70;99.90
52867;DHT22;38739;53.324;6.862;2023-04-15T06:42:10;7.70;99.90
52867;DHT22;38739;53.324;6.862;2023-04-15T06:44:36;7.70;99.90
52867;DHT22;38739;53.324;6.862;2023-04-15T06:47:02;7.80;99.90
52867;DHT22;38739;53.324;6.862;2023-04-15T06:49:28;7.80;99.90
52867;DHT22;38739;53.324;6.862;2023-04-15T06:51:53;7.80;99.90
52867;DHT22;38739;53.324;6.862;2023-04-15T06:54:20;7.80;99.90
52867;DHT22;38739;53.324;6.862;2023-04-15T06:56:45;7.80;99.90
52867;DHT22;38739;53.324;6.862;2023-04-15T06:59:12;7.90;99.90
52867;DHT22;38739;53.324;6.862;2023-04-15T07:01:40;7.90;99.90
52867;DHT22;38739;53.324;6.862;2023-04-15T07:04:06;7.90;99.90
52867;DHT22;38739;53.324;6.862;2023-04-15T07:06:34;8.00;99.90
52867;DHT22;38739;53.324;6.862;2023-04-15T07:09:00;8.00;99.90
52867;DHT22;38739;53.324;6.862;2023-04-15T07:11:26;8.00;99.90
52867;DHT22;38739;53.324;6.862;2023-04-15T07:13:52;8.10;99.90
52867;DHT22;38739;53.324;6.862;2023-04-15T07:16:17;8.10;99.90
52867;DHT22;38739;53.324;6.862;2023-04-15T07:18:43;8.20;99.90
52867;DHT22;38739;53.324;6.862;2023-04-15T07:21:09;8.20;99.90
52867;DHT22;38739;53.324;6.862;2023-04-15T07:23:35;8.20;99.90
52867;DHT22;38739;53.324;6.862;2023-04-15T07:26:00;8.20;99.90
52867;DHT22;38739;53.324;6.862;2023-04-15T07:28:26;8.20;99.90
52867;DHT22;38739;53.324;6.862;2023-04-15T07:30:52;8.20;99.90
52867;DHT22;38739;53.324;6.862;2023-04-15T07:33:18;8.20;99.90
52867;DHT22;38739;53.324;6.862;2023-04-15T07:35:44;8.20;99.90
52867;DHT22;38739;53.324;6.862;2023-04-15T07:38:09;8.30;99.90
52867;DHT22;38739;53.324;6.862;2023-04-15T07:40:38;8.30;99.90
52867;DHT22;38739;53.324;6.862;2023-04-15T07:43:04;8.30;99.90
52867;DHT22;38739;53.324;6.862;2023-04-15T07:45:33;8.30;99.90
52867;DHT22;38739;53.324;6.862;2023-04-15T07:48:00;8.30;99.90
52867;DHT22;38739;53.324;6.862;2023-04-15T07:50:27;8.30;99.90
52867;DHT22;38739;53.324;6.862;2023-04-15T07:52:53;8.40;99.90
52867;DHT22;38739;53.324;6.862;2023-04-15T07:55:19;8.40;99.90
52867;DHT22;38739;53.324;6.862;2023-04-15T07:57:47;8.40;99.90
52867;DHT22;38739;53.324;6.862;2023-04-15T08:00:13;8.40;99.90
52867;DHT22;38739;53.324;6.862;2023-04-15T08:02:41;8.30;99.90
52867;DHT22;38739;53.324;6.862;2023-04-15T08:05:12;8.30;99.90
52867;DHT22;38739;53.324;6.862;2023-04-15T08:07:38;8.30;99.90
52867;DHT22;38739;53.324;6.862;2023-04-15T08:10:05;8.30;99.90
52867;DHT22;38739;53.324;6.862;2023-04-15T08:12:30;8.40;99.90
52867;DHT22;38739;53.324;6.862;2023-04-15T08:14:56;8.40;99.90
52867;DHT22;38739;53.324;6.862;2023-04-15T08:17:22;8.40;99.90
52867;DHT22;38739;53.324;6.862;2023-04-15T08:19:48;8.40;99.90
52867;DHT22;38739;53.324;6.862;2023-04-15T08:22:14;8.40;99.90
52867;DHT22;38739;53.324;6.862;2023-04-15T08:24:40;8.40;99.90
52867;DHT22;38739;53.324;6.862;2023-04-15T08:27:06;8.40;99.90
52867;DHT22;38739;53.324;6.862;2023-04-15T08:29:32;8.40;99.90
52867;DHT22;38739;53.324;6.862;2023-04-15T08:31:59;8.50;99.90
52867;DHT22;38739;53.324;6.862;2023-04-15T08:34:26;8.60;99.90
52867;DHT22;38739;53.324;6.862;2023-04-15T08:36:52;8.80;99.90
52867;DHT22;38739;53.324;6.862;2023-04-15T08:39:18;8.90;99.90
52867;DHT22;38739;53.324;6.862;2023-04-15T08:41:46;9.00;99.90
52867;DHT22;38739;53.324;6.862;2023-04-15T08:44:13;9.10;99.90
52867;DHT22;38739;53.324;6.862;2023-04-15T08:46:40;9.20;99.90
52867;DHT22;38739;53.324;6.862;2023-04-15T08:49:11;9.30;99.90
52867;DHT22;38739;53.324;6.862;2023-04-15T08:51:40;9.30;99.90
52867;DHT22;38739;53.324;6.862;2023-04-15T08:54:08;9.30;99.90
52867;DHT22;38739;53.324;6.862;2023-04-15T08:56:34;9.30;99.90
52867;DHT22;38739;53.324;6.862;2023-04-15T08:59:01;9.20;99.90
52867;DHT22;38739;53.324;6.862;2023-04-15T09:01:28;9.20;99.90
52867;DHT22;38739;53.324;6.862;2023-04-15T09:03:54;9.20;99.90
52867;DHT22;38739;53.324;6.862;2023-04-15T09:06:21;9.20;99.90
52867;DHT22;38739;53.324;6.862;2023-04-15T09:08:48;9.30;99.90
52867;DHT22;38739;53.324;6.862;2023-04-15T09:11:13;9.30;99.90
52867;DHT22;38739;53.324;6.862;2023-04-15T09:13:39;9.30;99.90
52867;DHT22;38739;53.324;6.862;2023-04-15T09:16:05;9.40;99.90
52867;DHT22;38739;53.324;6.862;2023-04-15T09:18:33;9.40;99.90
52867;DHT22;38739;53.324;6.862;2023-04-15T09:21:10;9.50;99.90
52867;DHT22;38739;53.324;6.862;2023-04-15T09:23:37;9.60;99.90
52867;DHT22;38739;53.324;6.862;2023-04-15T09:26:04;9.70;99.90
52867;DHT22;38739;53.324;6.862;2023-04-15T09:28:31;9.70;99.90
52867;DHT22;38739;53.324;6.862;2023-04-15T09:30:57;9.70;99.90
52867;DHT22;38739;53.324;6.862;2023-04-15T09:33:24;9.60;99.90
52867;DHT22;38739;53.324;6.862;2023-04-15T09:36:04;9.60;99.90
52867;DHT22;38739;53.324;6.862;2023-04-15T09:38:31;9.50;99.90
52867;DHT22;38739;53.324;6.862;2023-04-15T09:40:57;9.50;99.90
52867;DHT22;38739;53.324;6.862;2023-04-15T09:43:39;9.50;99.90
52867;DHT22;38739;53.324;6.862;2023-04-15T09:46:05;9.60;99.90
52867;DHT22;38739;53.324;6.862;2023-04-15T09:48:31;9.60;99.90
52867;DHT22;38739;53.324;6.862;2023-04-15T09:50:58;9.70;99.90
52867;DHT22;38739;53.324;6.862;2023-04-15T09:53:25;9.80;99.90
52867;DHT22;38739;53.324;6.862;2023-04-15T09:55:56;9.80;99.90
52867;DHT22;38739;53.324;6.862;2023-04-15T09:58:24;9.90;99.90
52867;DHT22;38739;53.324;6.862;2023-04-15T10:00:55;10.00;99.90
52867;DHT22;38739;53.324;6.862;2023-04-15T10:03:27;9.90;99.90
52867;DHT22;38739;53.324;6.862;2023-04-15T10:05:55;10.10;99.90
52867;DHT22;38739;53.324;6.862;2023-04-15T10:08:27;10.10;99.90
52867;DHT22;38739;53.324;6.862;2023-04-15T10:10:53;10.00;99.90
52867;DHT22;38739;53.324;6.862;2023-04-15T10:13:21;10.00;99.90
52867;DHT22;38739;53.324;6.862;2023-04-15T10:16:10;10.00;99.90
52867;DHT22;38739;53.324;6.862;2023-04-15T10:18:39;10.00;99.90
52867;DHT22;38739;53.324;6.862;2023-04-15T10:21:06;10.00;99.90
52867;DHT22;38739;53.324;6.862;2023-04-15T10:23:33;9.80;99.90
52867;DHT22;38739;53.324;6.862;2023-04-15T10:25:59;9.80;99.90
52867;DHT22;38739;53.324;6.862;2023-04-15T10:28:26;9.70;99.90
52867;DHT22;38739;53.324;6.862;2023-04-15T10:30:52;9.70;99.90
52867;DHT22;38739;53.324;6.862;2023-04-15T10:33:21;9.60;99.90
52867;DHT22;38739;53.324;6.862;2023-04-15T10:35:48;9.60;99.90
52867;DHT22;38739;53.324;6.862;2023-04-15T10:38:33;9.60;99.90
52867;DHT22;38739;53.324;6.862;2023-04-15T10:41:15;9.50;99.90
52867;DHT22;38739;53.324;6.862;2023-04-15T10:44:01;9.50;99.90
52867;DHT22;38739;53.324;6.862;2023-04-15T10:46:37;9.50;99.90
52867;DHT22;38739;53.324;6.862;2023-04-15T10:49:08;9.50;99.90
52867;DHT22;38739;53.324;6.862;2023-04-15T10:51:46;9.50;99.90
52867;DHT22;38739;53.324;6.862;2023-04-15T10:54:29;9.60;99.90
52867;DHT22;38739;53.324;6.862;2023-04-15T10:57:20;9.70;99.90
52867;DHT22;38739;53.324;6.862;2023-04-15T11:06:08;9.50;99.90
52867;DHT22;38739;53.324;6.862;2023-04-15T11:08:12;9.40;99.90
52867;DHT22;38739;53.324;6.862;2023-04-15T11:18:28;9.50;99.90
52867;DHT22;38739;53.324;6.862;2023-04-15T11:21:00;9.40;99.90
52867;DHT22;38739;53.324;6.862;2023-04-15T11:23:39;9.40;99.90
52867;DHT22;38739;53.324;6.862;2023-04-15T11:26:09;9.40;99.90
52867;DHT22;38739;53.324;6.862;2023-04-15T11:28:40;9.40;99.90
52867;DHT22;38739;53.324;6.862;2023-04-15T11:31:08;9.40;99.90
52867;DHT22;38739;53.324;6.862;2023-04-15T11:33:35;9.40;99.90
52867;DHT22;38739;53.324;6.862;2023-04-15T11:36:01;9.40;99.90
52867;DHT22;38739;53.324;6.862;2023-04-15T11:38:28;9.30;99.90
52867;DHT22;38739;53.324;6.862;2023-04-15T11:40:55;9.20;99.90
52867;DHT22;38739;53.324;6.862;2023-04-15T11:43:22;9.20;99.90
52867;DHT22;38739;53.324;6.862;2023-04-15T11:45:59;9.20;99.90
52867;DHT22;38739;53.324;6.862;2023-04-15T11:48:29;9.20;99.90
52867;DHT22;38739;53.324;6.862;2023-04-15T11:51:00;9.20;99.90
52867;DHT22;38739;53.324;6.862;2023-04-15T11:53:46;9.20;99.90
52867;DHT22;38739;53.324;6.862;2023-04-15T11:56:24;9.20;99.90
52867;DHT22;38739;53.324;6.862;2023-04-15T11:58:58;9.20;99.90
52867;DHT22;38739;53.324;6.862;2023-04-15T12:01:34;9.10;99.90
52867;DHT22;38739;53.324;6.862;2023-04-15T12:04:01;9.20;99.90
52867;DHT22;38739;53.324;6.862;2023-04-15T12:06:32;9.20;99.90
52867;DHT22;38739;53.324;6.862;2023-04-15T12:11:47;9.10;99.90
52867;DHT22;38739;53.324;6.862;2023-04-15T12:14:26;9.10;99.90
52867;DHT22;38739;53.324;6.862;2023-04-15T12:17:03;9.10;99.90
52867;DHT22;38739;53.324;6.862;2023-04-15T12:19:37;9.00;99.90
52867;DHT22;38739;53.324;6.862;2023-04-15T12:22:14;9.00;99.90
52867;DHT22;38739;53.324;6.862;2023-04-15T12:24:41;9.00;99.90
52867;DHT22;38739;53.324;6.862;2023-04-15T12:27:14;8.90;99.90
52867;DHT22;38739;53.324;6.862;2023-04-15T12:29:41;8.90;99.90
52867;DHT22;38739;53.324;6.862;2023-04-15T12:32:12;8.80;99.90
52867;DHT22;38739;53.324;6.862;2023-04-15T12:34:44;8.80;99.90
52867;DHT22;38739;53.324;6.862;2023-04-15T12:37:14;8.90;99.90
52867;DHT22;38739;53.324;6.862;2023-04-15T12:39:44;8.90;99.90
52867;DHT22;38739;53.324;6.862;2023-04-15T12:42:11;8.90;99.90
52867;DHT22;38739;53.324;6.862;2023-04-15T12:44:38;8.90;99.90
52867;DHT22;38739;53.324;6.862;2023-04-15T12:47:04;8.90;99.90
52867;DHT22;38739;53.324;6.862;2023-04-15T12:49:31;8.90;99.90
52867;DHT22;38739;53.324;6.862;2023-04-15T12:51:58;8.90;99.90
52867;DHT22;38739;53.324;6.862;2023-04-15T12:54:28;8.90;99.90
52867;DHT22;38739;53.324;6.862;2023-04-15T12:56:54;8.90;99.90
52867;DHT22;38739;53.324;6.862;2023-04-15T12:59:20;8.90;99.90
52867;DHT22;38739;53.324;6.862;2023-04-15T13:01:48;8.90;99.90
52867;DHT22;38739;53.324;6.862;2023-04-15T13:04:15;8.90;99.90
52867;DHT22;38739;53.324;6.862;2023-04-15T13:06:41;8.90;99.90
52867;DHT22;38739;53.324;6.862;2023-04-15T13:09:07;8.90;99.90
52867;DHT22;38739;53.324;6.862;2023-04-15T13:11:33;8.90;99.90
52867;DHT22;38739;53.324;6.862;2023-04-15T13:14:04;8.90;99.90
52867;DHT22;38739;53.324;6.862;2023-04-15T13:16:30;8.80;99.90
52867;DHT22;38739;53.324;6.862;2023-04-15T13:18:57;8.80;99.90
52867;DHT22;38739;53.324;6.862;2023-04-15T13:21:23;8.80;99.90
52867;DHT22;38739;53.324;6.862;2023-04-15T13:23:49;8.80;99.90
52867;DHT22;38739;53.324;6.862;2023-04-15T13:26:17;8.80;99.90
52867;DHT22;38739;53.324;6.862;2023-04-15T13:28:43;8.80;99.90
52867;DHT22;38739;53.324;6.862;2023-04-15T13:31:09;8.80;99.90
52867;DHT22;38739;53.324;6.862;2023-04-15T13:33:35;8.80;99.90
52867;DHT22;38739;53.324;6.862;2023-04-15T13:36:01;8.80;99.90
52867;DHT22;38739;53.324;6.862;2023-04-15T13:38:27;8.80;99.90
52867;DHT22;38739;53.324;6.862;2023-04-15T13:40:52;8.80;99.90
52867;DHT22;38739;53.324;6.862;2023-04-15T13:43:18;8.80;99.90
52867;DHT22;38739;53.324;6.862;2023-04-15T13:45:45;8.70;99.90
52867;DHT22;38739;53.324;6.862;2023-04-15T13:48:10;8.70;99.90
52867;DHT22;38739;53.324;6.862;2023-04-15T13:50:36;8.60;99.90
52867;DHT22;38739;53.324;6.862;2023-04-15T13:53:02;8.60;99.90
52867;DHT22;38739;53.324;6.862;2023-04-15T13:55:27;8.60;99.90
52867;DHT22;38739;53.324;6.862;2023-04-15T13:57:53;8.60;99.90
52867;DHT22;38739;53.324;6.862;2023-04-15T14:00:19;8.60;99.90
52867;DHT22;38739;53.324;6.862;2023-04-15T14:02:45;8.60;99.90
52867;DHT22;38739;53.324;6.862;2023-04-15T14:05:10;8.60;99.90
52867;DHT22;38739;53.324;6.862;2023-04-15T14:07:36;8.60;99.90
52867;DHT22;38739;53.324;6.862;2023-04-15T14:10:03;8.50;99.90
52867;DHT22;38739;53.324;6.862;2023-04-15T14:12:28;8.60;99.90
52867;DHT22;38739;53.324;6.862;2023-04-15T14:14:54;8.60;99.90
52867;DHT22;38739;53.324;6.862;2023-04-15T14:17:20;8.50;99.90
52867;DHT22;38739;53.324;6.862;2023-04-15T14:19:46;8.60;99.90
52867;DHT22;38739;53.324;6.862;2023-04-15T14:22:11;8.50;99.90
52867;DHT22;38739;53.324;6.862;2023-04-15T14:24:37;8.50;99.90
52867;DHT22;38739;53.324;6.862;2023-04-15T14:27:03;8.50;99.90
52867;DHT22;38739;53.324;6.862;2023-04-15T14:29:28;8.50;99.90
52867;DHT22;38739;53.324;6.862;2023-04-15T14:31:55;8.50;99.90
52867;DHT22;38739;53.324;6.862;2023-04-15T14:34:23;8.50;99.90
52867;DHT22;38739;53.324;6.862;2023-04-15T14:36:50;8.50;99.90
52867;DHT22;38739;53.324;6.862;2023-04-15T14:39:17;8.50;99.90
52867;DHT22;38739;53.324;6.862;2023-04-15T14:41:44;8.40;99.90
52867;DHT22;38739;53.324;6.862;2023-04-15T14:44:10;8.50;99.90
52867;DHT22;38739;53.324;6.862;2023-04-15T14:46:37;8.50;99.90
52867;DHT22;38739;53.324;6.862;2023-04-15T14:49:03;8.50;99.90
52867;DHT22;38739;53.324;6.862;2023-04-15T14:51:28;8.50;99.90
52867;DHT22;38739;53.324;6.862;2023-04-15T14:53:55;8.50;99.90
52867;DHT22;38739;53.324;6.862;2023-04-15T14:56:21;8.50;99.90
52867;DHT22;38739;53.324;6.862;2023-04-15T14:58:47;8.50;99.90
52867;DHT22;38739;53.324;6.862;2023-04-15T15:01:13;8.50;99.90
52867;DHT22;38739;53.324;6.862;2023-04-15T15:03:39;8.50;99.90
52867;DHT22;38739;53.324;6.862;2023-04-15T15:06:05;8.50;99.90
52867;DHT22;38739;53.324;6.862;2023-04-15T15:08:31;8.50;99.90
52867;DHT22;38739;53.324;6.862;2023-04-15T15:10:57;8.50;99.90
52867;DHT22;38739;53.324;6.862;2023-04-15T15:13:22;8.50;99.90
52867;DHT22;38739;53.324;6.862;2023-04-15T15:15:48;8.50;99.90
52867;DHT22;38739;53.324;6.862;2023-04-15T15:18:15;8.50;99.90
52867;DHT22;38739;53.324;6.862;2023-04-15T15:20:41;8.50;99.90
52867;DHT22;38739;53.324;6.862;2023-04-15T15:23:07;8.50;99.90
52867;DHT22;38739;53.324;6.862;2023-04-15T15:25:32;8.50;99.90
52867;DHT22;38739;53.324;6.862;2023-04-15T15:27:58;8.50;99.90
52867;DHT22;38739;53.324;6.862;2023-04-15T15:30:24;8.50;99.90
52867;DHT22;38739;53.324;6.862;2023-04-15T15:32:50;8.50;99.90
52867;DHT22;38739;53.324;6.862;2023-04-15T15:35:16;8.50;99.90
52867;DHT22;38739;53.324;6.862;2023-04-15T15:37:42;8.50;99.90
52867;DHT22;38739;53.324;6.862;2023-04-15T15:40:08;8.50;99.90
52867;DHT22;38739;53.324;6.862;2023-04-15T15:42:33;8.50;99.90
52867;DHT22;38739;53.324;6.862;2023-04-15T15:44:59;8.50;99.90
52867;DHT22;38739;53.324;6.862;2023-04-15T15:47:25;8.50;99.90
52867;DHT22;38739;53.324;6.862;2023-04-15T15:49:52;8.50;99.90
52867;DHT22;38739;53.324;6.862;2023-04-15T15:52:18;8.50;99.90
52867;DHT22;38739;53.324;6.862;2023-04-15T15:54:44;8.50;99.90
52867;DHT22;38739;53.324;6.862;2023-04-15T15:57:10;8.50;99.90
52867;DHT22;38739;53.324;6.862;2023-04-15T15:59:36;8.50;99.90
52867;DHT22;38739;53.324;6.862;2023-04-15T16:02:10;8.50;99.90